Startpagina
METAR-TAF:

METAR-TAF

Vliegvelden :

Aeropuerto Adolfo Suárez Madrid-Barajas

Madrid, Spanje

breedte: 40-27N, lengte: 003-33W, hoogte: 609 m

Actueel weer

Dit bericht is 22 minuten geleden gemaakt, om 21:30 UTC
Wind 10 kt uit het noorden
Temperatuur 24°C
Vochtigheid 36%
Druk 1023 hPa
Zicht 10 km of meer
geen wolken onder 1500 m en geen cumulonimbus

METAR: LEMD 172130Z 35010KT CAVOK 24/08 Q1023 NOSIG

Tijdstip: 23:52 (21:52 UTC)

Verwachting

Dit bericht is 4 uur en het 52 minuten geleden gemaakt, om 17:00 UTC
Verwachting geldig van 17 om 18 UTC tot 18 om 24 UTC
Wind 10 kt uit het noordnoordoosten
Zicht 10 km of meer
geen wolken onder 1500 m en geen cumulonimbus
Kans 30% :
Tijdelijke
van 17 om 18 UTC tot 18 om 03 UTC
Wind 12 kt uit het noordnoordoosten met uitschieters tot 22 kt
Tijdelijke
van 18 om 08 UTC tot 18 om 15 UTC
Wind 4 kt uit variabele richting

TAF: LEMD 171700Z 1718/1824 02010KT CAVOK TX32/1815Z TN16/1805Z PROB30 TEMPO 1718/1803 02012G22KT TEMPO 1808/1815 VRB04KT

Waarnemingen en weersverwachtingen van meer dan 4000 vliegvelden (METAR en TAF).

De beschikbare stations zijn de gele en rode punten op de kaart.

Ga met uw muis naar het station om de naam te zien.

Klik dan om waarnemingen en weersverwachtingen te zien.

kaart wijzigen: klik op de groene knoppen met een zwart kruis om in te zoomen, op de groene knop met een streepje om uit te zoomen of op de groene pijlen voor aangrenzende kaarten.


METAR-TAF: